Date,TemperatureHighF,TemperatureAvgF,TemperatureLowF,DewpointHighF,DewpointAvgF,DewpointLowF,HumidityHigh,HumidityAvg,HumidityLow,PressureMaxIn,PressureMinIn,WindSpeedMaxMPH,WindSpeedAvgMPH,GustSpeedMaxMPH,PrecipitationSumIn
2013-1-1,31.8,25.1,9.6,29.9,21.5,7.0,94,86,80,30.09,29.96,7,1,0,0.00
2013-1-2,23.9,12.9,5.0,16.6,9.5,2.5,94,86,72,30.24,30.06,7,1,0,0.00
2013-1-3,30.0,18.2,4.1,23.7,14.2,1.7,93,84,65,30.22,30.12,10,2,0,0.00
2013-1-4,30.1,26.7,24.5,23.1,19.7,17.9,84,75,62,30.22,30.11,11,4,14,0.00
2013-1-5,35.2,28.3,21.3,27.7,22.7,18.0,88,80,70,30.33,30.08,8,1,0,0.00
2013-1-6,36.5,33.4,28.7,32.5,29.2,25.9,93,84,78,30.22,29.92,9,2,0,0.05
2013-1-7,35.3,29.9,26.0,27.7,25.5,22.6,91,84,69,30.41,30.19,9,1,0,0.02
2013-1-8,40.9,29.0,18.8,29.8,24.4,17.2,96,84,58,30.30,30.19,7,1,0,0.07
2013-1-9,45.7,37.7,26.5,38.6,31.9,24.5,94,80,63,30.44,30.13,11,2,13,0.06
2013-1-10,39.7,33.4,24.7,31.5,28.5,23.5,97,83,66,30.55,30.18,7,1,12,0.01
2013-1-11,57.0,46.0,39.4,53.6,42.5,29.3,99,88,66,30.19,29.79,9,2,12,0.61
2013-1-12,59.5,52.9,43.0,56.8,51.5,42.5,100,95,83,29.97,29.78,9,1,0,0.03
2013-1-13,63.9,55.7,38.2,59.8,53.3,37.2,100,92,82,29.94,29.66,13,2,16,0.32
2013-1-14,38.2,29.3,23.9,37.3,25.3,20.9,97,85,77,30.40,29.93,10,2,0,0.01
2013-1-15,31.9,28.0,23.7,24.8,22.5,20.4,90,80,68,30.38,30.07,6,1,0,0.00
2013-1-16,34.4,31.1,28.0,27.3,25.1,23.2,89,78,66,30.07,29.85,9,1,0,0.00
2013-1-17,35.7,32.5,25.1,30.3,26.6,16.9,87,79,69,30.23,29.97,10,2,15,0.00
2013-1-18,33.8,26.8,17.0,23.2,17.3,11.4,83,68,54,30.45,30.10,12,3,14,0.00
2013-1-19,49.6,42.8,33.7,31.0,27.0,23.0,65,54,44,30.10,29.68,14,4,16,0.00
2013-1-20,46.0,28.8,19.4,34.7,18.3,12.0,75,65,49,30.12,29.64,17,4,26,0.00
2013-1-21,20.7,16.9,9.0,15.7,10.0,2.5,89,74,61,30.11,29.93,12,3,15,0.00
2013-1-22,13.0,7.5,2.4,5.5,1.7,-0.8,87,77,59,30.29,30.09,11,2,12,0.00
2013-1-23,17.0,9.9,1.1,11.7,4.9,-2.1,90,80,55,30.30,30.08,7,1,0,0.00
2013-1-24,21.8,14.2,8.3,14.2,8.6,4.2,91,79,52,30.55,30.08,8,1,0,0.01
2013-1-25,18.6,15.7,11.3,16.7,11.3,6.9,92,82,72,30.50,30.02,9,2,0,0.00
2013-1-26,26.7,21.3,11.4,21.4,17.2,8.7,94,85,69,30.43,30.06,9,1,12,0.00
2013-1-27,29.9,22.1,9.6,24.5,16.7,7.3,93,80,68,30.50,30.23,9,2,12,0.00
2013-1-28,47.8,40.6,29.6,47.5,39.7,24.8,99,97,82,30.24,29.91,9,2,0,0.04
2013-1-29,59.1,52.6,44.2,56.3,51.3,43.9,100,96,82,29.99,29.57,12,1,15,0.09
2013-1-30,62.0,54.9,34.7,56.2,51.2,32.6,98,87,76,29.57,29.08,13,4,19,0.43
2013-1-31,34.5,24.7,16.6,32.7,18.9,7.9,94,78,66,29.84,29.23,18,5,26,0.00
2013-2-1,17.1,14.2,10.9,11.3,8.2,6.2,84,77,68,30.31,29.84,12,4,16,0.00
2013-2-2,22.9,17.8,11.5,21.0,14.7,6.6,94,88,80,30.29,29.95,8,1,12,0.00
2013-2-3,21.8,18.6,14.8,20.1,15.2,11.4,94,87,74,30.02,29.85,8,2,0,0.01
2013-2-4,25.2,20.1,13.6,22.1,17.4,10.4,93,89,84,30.04,29.84,5,1,0,0.00
2013-2-5,29.2,25.3,22.7,25.0,21.9,19.7,95,87,71,29.92,29.82,7,1,0,0.01
2013-2-6,31.2,25.3,17.1,26.1,18.9,12.9,95,77,56,30.29,29.92,6,1,0,0.00
2013-2-7,42.1,32.1,19.6,30.3,24.3,14.6,82,73,61,30.26,29.82,10,2,0,0.02
2013-2-8,40.0,31.2,24.5,37.1,28.1,21.0,96,88,79,30.22,29.70,15,4,20,0.14
2013-2-9,31.5,25.5,19.8,22.2,19.9,16.8,90,80,64,30.40,30.22,9,2,0,0.01
2013-2-10,45.2,34.6,22.4,38.0,24.4,18.4,85,67,52,30.30,29.78,8,3,0,0.00
2013-2-11,50.3,40.9,32.5,44.9,34.8,23.8,97,79,63,29.88,29.62,17,4,21,0.00
2013-2-12,38.9,31.7,25.6,28.6,25.4,23.3,93,77,66,30.04,29.87,10,2,16,0.00
2013-2-13,32.6,27.6,22.9,27.3,24.6,21.2,96,88,79,29.89,29.71,5,1,0,0.00
2013-2-14,38.4,32.0,22.6,35.4,29.6,21.0,96,91,77,29.88,29.77,11,2,13,0.00
2013-2-15,35.9,30.9,22.9,30.1,25.4,20.8,94,80,72,30.06,29.87,10,2,0,0.00
2013-2-16,28.1,23.3,16.4,22.8,17.4,12.6,92,79,55,30.05,29.93,8,1,0,0.00
2013-2-17,22.2,16.3,7.4,16.1,11.1,4.4,92,80,60,30.24,29.97,11,2,0,0.03
2013-2-18,45.8,26.8,6.0,33.2,18.5,3.5,92,72,57,30.25,29.72,12,2,15,0.02
2013-2-19,47.2,30.7,17.0,39.2,26.7,11.7,96,85,58,29.94,29.54,17,5,21,0.13
2013-2-20,21.1,18.5,15.8,17.3,14.2,10.5,90,83,74,30.21,29.94,12,3,14,0.00
2013-2-21,22.8,20.4,18.6,17.4,15.5,13.7,90,81,72,30.34,30.19,8,2,0,0.00
2013-2-22,38.1,29.8,20.6,36.9,26.9,15.7,98,89,79,30.26,29.90,12,3,15,0.01
2013-2-23,36.3,33.3,29.4,31.5,28.4,24.6,93,82,70,29.94,29.84,6,2,0,0.00
2013-2-24,32.9,29.4,26.2,26.3,23.8,19.6,86,79,72,30.12,29.85,8,2,0,0.00
2013-2-25,40.9,29.1,20.4,29.6,24.2,19.0,97,83,56,30.19,30.09,6,1,0,0.00
2013-2-26,38.4,36.2,34.0,37.1,33.5,25.3,96,90,69,29.83,29.45,15,6,18,0.76
2013-2-27,40.8,37.0,32.5,39.2,35.7,31.3,98,95,85,29.60,29.44,9,2,13,0.18
2013-2-28,34.2,32.3,30.2,32.7,30.5,27.5,97,93,89,29.85,29.54,10,2,12,0.08
2013-3-1,30.1,27.6,25.4,27.5,24.6,22.0,92,89,84,30.00,29.84,10,3,0,0.00
2013-3-2,28.0,25.7,24.0,23.8,22.6,20.6,93,88,76,29.98,29.94,11,2,13,0.02
2013-3-3,27.2,23.4,21.2,21.8,19.5,17.4,92,85,76,30.02,29.95,9,2,0,0.01
2013-3-4,33.9,24.7,11.9,23.5,19.0,9.5,94,80,61,30.12,30.02,8,1,0,0.04
2013-3-5,42.3,31.8,20.5,25.6,21.0,17.0,90,66,41,30.08,29.61,10,2,14,0.01
2013-3-6,43.3,36.0,29.4,33.4,29.7,25.1,95,78,63,30.13,29.61,8,2,0,0.00
2013-3-7,37.1,33.1,29.7,33.2,30.4,27.3,95,90,79,30.32,30.12,7,2,0,0.00
2013-3-8,37.9,30.4,23.5,33.0,26.8,22.0,96,87,74,30.44,30.31,10,1,0,0.08
2013-3-9,52.2,38.2,22.5,35.9,29.5,21.0,97,73,52,30.40,30.05,10,2,0,0.00
2013-3-10,67.3,55.5,45.5,40.8,36.3,31.8,71,50,33,30.06,29.81,12,2,14,0.00
2013-3-11,59.8,50.9,40.9,49.8,43.5,36.1,96,78,44,29.81,29.49,15,2,16,0.79
2013-3-12,40.9,35.5,32.3,36.1,30.9,27.4,93,83,73,29.93,29.69,8,2,15,0.01
2013-3-13,32.3,29.4,26.4,29.3,24.7,19.4,93,83,65,30.15,29.87,14,3,17,0.01
2013-3-14,37.6,29.4,22.7,25.4,21.7,18.0,86,73,57,30.22,30.08,11,2,13,0.00
2013-3-15,44.6,35.8,25.9,37.9,30.5,22.4,96,81,71,30.09,29.80,11,1,0,0.07
2013-3-16,38.2,33.4,28.9,37.4,32.2,26.1,98,95,89,29.98,29.60,10,2,14,0.07
2013-3-17,34.4,30.5,27.8,27.8,24.6,20.6,93,79,63,30.17,29.98,7,1,0,0.00
2013-3-18,45.8,35.6,27.4,45.5,33.0,20.6,99,90,75,30.11,29.55,13,4,19,0.35
2013-3-19,40.2,31.1,26.1,36.9,24.1,19.0,90,75,63,29.93,29.66,14,5,22,0.00
2013-3-20,30.2,27.2,20.5,22.4,19.9,12.5,88,74,62,29.94,29.85,10,3,12,0.00
2013-3-21,28.9,22.3,13.9,24.1,17.0,10.3,88,80,71,29.91,29.85,10,2,12,0.00
2013-3-22,37.4,28.9,24.8,24.8,21.6,19.3,84,74,58,29.98,29.90,10,2,0,0.00
2013-3-23,41.4,30.8,21.2,29.8,24.2,19.1,95,77,59,30.03,29.96,8,1,0,0.00
2013-3-24,35.2,30.8,25.9,25.2,23.4,22.3,88,74,60,29.98,29.44,10,2,14,0.00
2013-3-25,35.3,33.0,31.4,33.3,31.2,24.9,97,93,70,29.79,29.37,8,1,0,0.25
2013-3-26,40.0,34.0,31.2,33.3,30.9,29.4,96,89,69,30.07,29.79,9,2,14,0.04
2013-3-27,43.3,36.3,31.0,32.5,30.0,28.0,96,79,59,30.14,30.05,12,3,14,0.03
2013-3-28,44.6,37.9,31.8,32.8,28.7,26.2,80,70,51,30.22,30.13,12,2,0,0.00
2013-3-29,49.1,40.2,30.8,32.1,28.5,25.0,83,64,43,30.23,30.15,9,2,13,0.00
2013-3-30,55.2,40.8,25.3,32.9,27.2,22.5,90,62,33,30.20,29.94,8,1,0,0.00
2013-3-31,51.9,45.5,38.2,46.0,36.6,26.7,88,71,53,29.94,29.63,9,1,0,0.00
2013-4-1,47.8,37.4,29.7,40.9,24.2,15.6,83,60,39,30.03,29.62,11,3,14,0.00
2013-4-2,38.9,31.1,22.5,21.4,17.2,13.6,74,57,37,30.18,30.03,11,2,14,0.00
2013-4-3,37.7,30.7,21.3,24.2,17.9,13.8,85,60,41,30.40,30.18,12,2,14,0.00
2013-4-4,51.9,35.1,20.0,21.1,17.1,13.4,80,52,24,30.37,29.93,9,1,0,0.00
2013-4-5,46.7,38.6,30.4,35.1,25.9,18.9,74,61,42,30.17,29.90,11,2,13,0.00
2013-4-6,55.3,41.0,24.3,24.5,19.4,14.3,78,46,24,30.23,29.89,11,2,12,0.00
2013-4-7,71.8,58.5,46.0,47.8,36.9,18.9,74,46,28,29.93,29.74,14,3,17,0.00
2013-4-8,69.8,55.6,40.0,55.0,45.3,35.5,86,70,50,29.95,29.76,14,2,17,0.00
2013-4-9,79.1,65.1,47.3,58.3,51.6,42.8,86,63,46,30.01,29.78,12,2,14,0.00
2013-4-10,74.5,60.4,44.4,66.3,54.6,43.3,98,82,59,29.84,29.69,10,1,17,0.85
2013-4-11,54.0,48.3,41.7,52.5,47.7,41.2,100,98,92,29.83,29.51,11,1,16,0.30
2013-4-12,56.1,44.4,38.9,55.9,42.2,34.6,100,92,78,29.80,29.39,10,2,12,0.20
2013-4-13,43.7,40.2,36.3,37.7,34.2,28.5,85,79,68,29.98,29.80,12,3,14,0.01
2013-4-14,58.1,44.2,28.7,41.8,35.0,26.8,96,72,51,30.11,29.92,8,1,0,0.00
2013-4-15,67.3,58.6,44.1,53.8,47.4,38.1,83,67,57,29.98,29.88,13,2,15,0.00
2013-4-16,69.7,58.2,47.9,61.4,53.6,47.1,98,85,73,30.12,29.88,14,2,14,0.26
2013-4-17,64.4,55.4,46.4,55.0,47.5,42.8,99,77,52,30.21,29.98,8,2,0,0.01
2013-4-18,83.7,69.5,57.6,64.4,58.3,54.3,93,71,38,29.99,29.58,15,3,23,0.00
2013-4-19,69.0,52.0,38.8,60.6,44.3,30.7,95,76,61,29.79,29.27,13,4,17,0.21
2013-4-20,43.2,38.0,31.9,32.2,28.5,25.0,83,69,51,30.38,29.79,12,3,14,0.01
2013-4-21,49.4,38.0,27.6,32.7,27.7,24.3,89,68,39,30.57,30.38,8,2,12,0.00
2013-4-22,63.2,49.4,33.9,43.3,34.5,26.9,79,58,39,30.42,30.15,10,1,0,0.00
2013-4-23,70.5,57.7,43.2,48.6,38.3,28.3,67,49,36,30.16,29.80,10,2,15,0.00
2013-4-24,60.2,47.1,33.7,54.5,43.6,32.6,96,89,57,30.11,29.65,11,2,14,0.56
2013-4-25,51.0,39.6,29.2,42.8,34.3,28.4,98,83,54,30.31,30.11,9,1,15,0.06
2013-4-26,56.9,44.2,30.2,36.8,32.7,28.9,97,68,39,30.45,30.31,10,1,0,0.00
2013-4-27,69.4,53.6,36.5,42.5,36.6,32.4,86,57,28,30.34,30.03,9,1,0,0.00
2013-4-28,56.4,53.5,47.3,55.7,49.3,39.5,98,87,64,30.04,29.81,8,2,0,0.35
2013-4-29,66.2,59.0,52.7,57.2,55.1,51.0,99,88,67,29.91,29.80,7,1,0,0.28
2013-4-30,73.3,60.7,47.6,59.1,53.3,47.1,99,79,51,30.04,29.91,11,1,12,0.00
2013-5-1,77.6,65.9,55.0,61.1,54.5,50.4,85,68,45,30.19,30.04,10,2,0,0.00
2013-5-2,76.0,66.0,55.4,52.9,46.1,38.9,72,49,35,30.23,30.06,10,2,12,0.00
2013-5-3,75.0,65.6,55.6,46.0,41.5,33.9,62,43,26,30.11,29.98,13,3,17,0.00
2013-5-4,70.3,61.8,51.9,46.2,40.5,33.2,64,47,27,30.08,29.97,16,3,17,0.00
2013-5-5,72.4,62.4,53.0,44.3,38.3,26.3,65,44,19,30.03,29.90,11,2,14,0.00
2013-5-6,72.8,62.5,52.1,53.5,45.2,29.4,75,54,31,29.98,29.87,9,2,0,0.00
2013-5-7,70.3,62.5,57.4,59.3,54.8,51.5,86,76,61,29.95,29.87,9,1,0,0.01
2013-5-8,71.7,62.7,56.8,58.3,54.2,50.1,91,75,50,29.92,29.84,7,1,0,0.00
2013-5-9,78.2,65.7,52.9,58.2,50.6,42.6,98,64,30,29.92,29.84,6,0,0,0.01
2013-5-10,73.3,63.4,57.4,63.8,58.8,45.3,99,86,46,29.88,29.69,10,1,12,0.30
2013-5-11,56.9,49.4,44.7,55.7,47.6,41.9,98,93,83,29.83,29.70,6,1,0,0.05
2013-5-12,49.9,43.0,34.2,41.9,33.6,28.5,96,71,50,30.04,29.83,14,2,14,0.00
2013-5-13,50.4,40.8,29.4,34.6,29.5,24.6,91,66,39,30.12,30.02,9,1,15,0.00
2013-5-14,67.0,51.9,35.6,48.5,38.2,29.1,80,61,44,30.12,29.74,10,2,16,0.00
2013-5-15,83.9,68.5,53.8,62.6,54.1,43.8,90,62,34,29.76,29.64,7,1,17,0.00
2013-5-16,79.3,67.6,53.7,53.4,49.1,41.4,86,55,26,29.88,29.68,6,0,0,0.00
2013-5-17,78.1,63.6,50.3,63.6,51.7,43.8,86,66,45,30.04,29.88,7,1,0,0.00
2013-5-18,81.8,69.0,55.3,60.1,51.8,42.4,77,56,34,30.05,29.91,7,1,0,0.00
2013-5-19,79.8,71.1,62.3,67.2,63.1,56.8,94,77,60,29.96,29.83,7,1,0,0.00
2013-5-20,79.4,71.2,62.6,72.2,67.0,61.1,98,87,74,29.91,29.78,8,1,0,0.00
2013-5-21,84.7,75.3,68.1,70.5,66.4,61.1,99,76,47,29.81,29.67,10,1,12,0.00
2013-5-22,82.4,73.7,65.0,65.6,63.0,59.8,96,70,53,29.73,29.60,12,1,16,0.06
2013-5-23,72.3,60.3,42.1,63.7,56.5,40.6,98,88,64,29.97,29.63,10,2,15,0.03
2013-5-24,47.9,42.5,34.9,40.7,36.9,33.1,94,81,64,30.28,29.97,9,2,12,0.00
2013-5-25,59.4,47.1,34.4,41.7,36.6,33.2,98,70,41,30.35,30.24,9,1,12,0.00
2013-5-26,64.3,51.4,37.1,42.0,37.0,32.4,96,62,33,30.28,30.19,9,1,0,0.00
2013-5-27,59.7,51.4,41.1,51.0,43.9,35.8,90,76,63,30.21,29.98,7,1,0,0.11
2013-5-28,82.0,67.4,53.3,69.8,60.4,50.8,99,80,56,29.99,29.82,11,1,16,0.23
2013-5-29,85.7,76.6,66.9,66.6,62.1,56.6,81,62,43,29.95,29.85,10,1,12,0.00
2013-5-30,86.1,74.8,61.5,69.0,63.5,60.0,98,71,44,30.05,29.93,11,1,0,0.00
2013-5-31,84.7,72.2,62.2,70.1,65.2,60.3,99,81,56,29.97,29.83,14,1,14,0.54
2013-6-1,81.2,72.6,65.1,70.9,67.5,64.7,99,85,66,29.87,29.65,14,1,14,0.23
2013-6-2,74.9,68.4,62.0,66.2,62.1,55.6,99,81,60,29.82,29.65,6,1,0,0.10
2013-6-3,63.8,56.7,45.9,55.8,47.9,39.7,87,73,48,30.04,29.82,7,1,0,0.00
2013-6-4,69.0,56.2,42.4,51.6,44.6,40.5,97,68,44,30.12,30.03,6,1,0,0.00
2013-6-5,76.7,62.5,49.4,58.4,50.0,42.6,85,65,41,30.09,29.85,9,1,0,0.00
2013-6-6,61.8,58.1,54.4,61.0,55.9,49.3,100,93,65,29.85,29.71,6,0,0,0.87
2013-6-7,59.9,56.2,54.2,57.5,55.4,54.2,100,97,90,29.83,29.76,6,1,0,0.01
2013-6-8,71.5,61.9,55.8,58.9,56.0,54.1,99,83,56,30.02,29.82,6,0,0,0.00
2013-6-9,78.0,68.5,59.0,64.9,59.8,53.5,87,75,57,30.07,29.88,8,1,0,0.00
2013-6-10,71.8,68.0,63.4,69.7,65.8,62.2,99,93,82,29.88,29.65,8,0,0,0.25
2013-6-11,79.0,69.6,63.2,67.6,65.0,62.4,99,86,63,29.81,29.69,6,1,0,0.05
2013-6-12,80.2,72.3,62.9,73.8,67.2,62.0,98,85,68,29.83,29.58,8,0,0,0.07
2013-6-13,71.7,66.0,60.8,68.1,61.5,54.1,99,87,65,29.77,29.39,11,1,16,0.64
2013-8-14,57.2,56.6,56.0,53.0,52.6,52.2,87,86,85,30.16,30.15,0,0,0,0.00
2013-8-17,77.2,70.9,60.3,62.9,58.6,54.7,86,66,47,30.23,30.17,7,1,0,0.00
2013-8-18,74.3,65.5,56.4,65.7,60.6,54.5,97,85,71,30.21,30.10,7,0,0,0.00
2013-8-19,78.3,68.2,60.8,65.8,62.3,60.1,99,83,56,30.14,30.06,4,0,0,0.00
2013-8-20,82.4,69.8,58.5,66.7,61.5,57.8,100,78,48,30.17,30.09,3,0,0,0.00
2013-8-21,83.7,71.4,58.9,68.2,64.0,58.3,100,80,51,30.18,30.03,7,0,0,0.00
2013-8-22,82.4,72.6,63.7,73.4,68.5,63.1,98,88,68,30.07,29.96,6,0,0,0.07
2013-8-23,80.5,70.9,58.2,69.2,62.0,52.4,99,76,46,30.16,29.98,7,0,0,0.08
2013-8-24,80.2,67.3,54.8,58.7,54.0,47.2,96,67,34,30.31,30.16,7,0,0,0.00
2013-8-25,82.7,68.6,54.6,65.7,59.2,53.7,99,75,48,30.34,30.20,9,1,0,0.00
2013-8-26,83.8,73.1,60.9,69.9,64.3,58.5,95,75,54,30.22,29.99,9,0,14,0.00
2013-8-27,79.6,74.1,70.7,74.2,70.7,67.9,99,89,81,30.02,29.86,5,0,0,0.30
2013-8-28,81.1,74.7,69.5,74.0,71.9,69.0,99,91,79,29.94,29.80,7,1,0,0.00
2013-8-29,84.8,74.5,67.4,72.6,69.5,64.5,100,86,54,30.04,29.93,7,0,0,0.00
2013-8-30,85.5,73.9,63.4,71.9,67.8,63.1,100,83,59,29.99,29.79,7,0,0,0.00
2013-8-31,83.2,74.8,68.1,74.0,69.8,67.2,97,85,68,29.81,29.63,15,0,16,0.05
2013-9-1,82.2,74.0,69.0,75.5,70.7,68.1,99,90,68,29.80,29.71,7,0,0,0.27
2013-9-2,79.3,70.1,62.6,73.7,67.5,60.6,100,92,68,29.85,29.72,7,0,0,0.12
2013-9-3,63.9,59.8,53.0,61.1,57.0,52.1,98,91,81,30.05,29.84,6,0,0,0.00
2013-9-4,76.7,62.9,49.8,62.4,56.3,49.3,100,82,51,30.13,30.04,5,0,0,0.00
2013-9-5,70.9,63.6,51.4,61.6,55.8,44.7,98,77,44,30.23,30.06,11,1,0,0.00
2013-9-6,72.8,58.7,45.8,53.3,48.3,44.9,100,73,38,30.29,30.12,6,0,0,0.00
2013-9-7,80.5,65.5,49.4,68.0,57.8,47.9,97,78,52,30.12,29.92,6,0,0,0.00
2013-9-8,72.7,67.4,59.3,68.3,63.4,53.1,98,87,71,30.05,29.90,9,1,0,0.01
2013-9-9,80.4,67.3,52.8,72.6,62.6,50.8,95,85,73,30.07,29.96,7,0,0,0.00
2013-9-10,94.3,81.5,71.1,75.8,72.4,68.7,94,76,48,30.06,29.98,7,1,0,0.00
2013-9-11,90.8,79.5,70.2,74.3,71.6,67.2,99,79,50,30.08,29.94,6,0,0,0.00
2013-9-12,75.0,67.9,59.9,70.7,66.3,58.3,100,95,78,29.94,29.80,5,0,12,0.58
2013-9-13,60.2,55.9,49.9,59.4,50.6,-99.9,99,89,72,30.09,29.85,12,1,13,0.02
2013-9-14,64.6,54.1,43.7,50.8,46.6,42.1,96,77,54,30.19,30.08,5,0,0,0.00
2013-9-15,65.8,56.2,44.7,56.3,50.7,43.9,99,83,57,30.19,30.06,5,0,0,0.02
2013-9-16,66.9,58.6,49.5,57.6,54.4,47.1,98,87,66,30.34,30.11,11,1,12,0.03
2013-9-17,67.8,55.1,42.9,52.2,48.4,42.1,99,80,51,30.40,30.25,7,1,0,0.00
2013-9-18,73.3,60.7,50.0,61.8,54.2,46.6,96,80,64,30.25,30.07,8,1,0,0.00
2013-9-19,74.1,66.5,60.5,68.0,64.2,59.4,97,92,79,30.11,29.99,7,1,0,0.00
2013-9-20,81.8,72.2,65.9,72.3,68.3,64.9,99,88,69,30.01,29.75,13,1,13,0.46
2013-9-21,67.9,63.3,53.8,67.6,61.3,52.9,100,94,70,29.81,29.64,5,0,0,1.42
2013-9-22,56.6,53.8,51.4,52.9,48.7,44.1,98,83,65,30.05,29.81,7,0,0,0.00
2013-9-23,57.8,52.8,44.9,49.9,44.5,-99.9,96,83,66,30.17,30.05,3,0,2,0.00
2013-9-24,65.3,52.5,40.6,52.6,46.5,39.9,99,82,52,30.16,29.99,6,0,0,0.00
2013-9-25,71.2,58.0,45.8,56.5,51.7,45.0,100,82,51,30.01,29.90,6,0,0,0.00
2013-9-26,72.8,61.8,46.5,55.5,50.6,45.4,99,69,41,30.12,29.96,6,1,0,0.00
2013-9-27,72.1,59.3,48.1,56.4,51.8,46.7,98,79,51,30.22,30.11,7,0,0,0.00
2013-9-28,73.8,61.3,50.3,59.3,54.6,49.5,98,81,54,30.23,30.09,8,1,0,0.00
2013-9-29,71.9,62.3,53.7,62.9,57.8,52.3,97,86,67,30.10,29.98,6,1,0,0.01
2013-9-30,65.7,61.9,55.9,62.0,59.9,55.0,98,93,85,30.02,29.94,6,0,0,0.02
2013-10-1,75.6,63.2,53.5,65.3,58.7,52.9,100,87,62,30.08,29.98,8,0,0,0.00
2013-10-2,79.8,66.5,56.0,68.5,62.5,55.3,99,88,65,30.09,30.02,5,0,0,0.00
2013-10-3,79.7,67.9,62.1,70.1,65.3,61.2,99,92,66,30.07,29.97,7,0,0,0.14
2013-10-4,77.5,68.0,61.4,69.7,66.3,61.2,100,95,70,30.06,30.00,6,0,0,0.12
2013-10-5,71.6,67.6,63.3,70.8,67.0,63.1,100,98,91,30.05,29.92,5,0,0,0.38
2013-10-6,78.0,70.5,65.8,69.0,67.3,65.5,100,90,69,29.92,29.66,13,1,15,0.04
2013-10-9,52.3,51.7,50.8,46.2,45.8,45.2,82,80,79,30.24,30.23,0,0,0,0.00
2013-10-10,66.2,54.0,42.4,50.4,45.0,39.2,96,74,38,30.24,30.12,5,0,0,0.00
2013-10-11,73.2,57.7,44.6,56.8,49.5,43.5,100,78,38,30.14,30.05,6,0,0,0.00
2013-10-12,72.2,61.8,50.6,63.4,56.0,46.6,95,82,68,30.12,30.06,7,0,0,0.00
2013-10-13,66.3,61.6,54.9,62.4,58.2,50.9,97,89,75,30.29,30.12,6,0,0,0.02
2013-10-14,64.9,55.7,47.9,52.5,49.2,43.8,96,80,57,30.36,30.24,7,1,0,0.00
2013-10-15,62.5,56.9,44.2,59.9,55.3,42.3,100,94,87,30.26,29.95,5,0,0,0.02
2013-10-16,66.4,60.0,46.7,63.8,58.3,45.1,100,94,78,29.95,29.80,8,1,15,0.77
2013-10-17,56.5,47.6,40.4,50.4,45.8,39.9,100,94,73,29.93,29.79,4,0,0,0.19
2013-10-18,61.4,50.5,39.2,48.7,44.5,38.4,99,81,57,30.01,29.91,11,1,14,0.00
2013-10-19,49.9,44.6,40.5,44.9,42.6,39.2,97,93,82,29.95,29.77,4,0,0,0.25
2013-10-20,58.6,47.6,37.7,44.5,40.3,36.1,95,77,52,30.01,29.94,8,1,16,0.00
2013-10-21,63.4,51.4,45.1,46.0,41.7,39.3,81,71,47,30.00,29.86,14,1,14,0.00
2013-10-22,48.3,42.5,32.8,34.9,32.2,28.6,94,68,50,29.99,29.90,6,1,0,0.02
2013-10-23,44.6,38.9,35.6,40.2,35.2,32.4,97,87,66,29.97,29.80,12,0,12,0.10
2013-10-24,42.6,37.0,32.2,35.0,32.4,29.8,95,84,68,30.19,29.95,5,1,0,0.00
2013-10-25,45.9,37.1,30.5,36.0,31.9,28.8,97,83,55,30.39,30.19,6,0,0,0.01
2013-10-26,45.7,39.5,32.6,38.6,31.3,27.6,92,73,59,30.26,29.90,12,1,14,0.00
2013-10-27,50.1,39.4,30.8,37.7,34.0,29.8,98,83,55,30.13,30.02,4,0,0,0.00
2013-10-28,56.3,42.0,30.0,43.1,36.3,28.9,98,82,51,30.36,30.11,5,0,0,0.00
2013-10-29,55.4,43.7,33.0,42.3,38.0,32.0,99,82,53,30.43,30.27,6,0,0,0.00
2013-10-30,62.9,52.3,38.6,55.0,46.2,36.9,97,80,64,30.27,30.04,7,0,0,0.00
2013-10-31,65.4,60.1,57.2,59.2,58.0,55.0,99,93,76,30.05,29.30,13,3,21,0.53
2013-11-1,59.7,53.0,48.1,59.1,48.1,43.1,98,84,72,29.69,29.25,11,2,18,0.29
2013-11-2,48.1,45.3,41.2,44.9,43.2,39.9,97,92,84,30.05,29.68,8,0,0,0.19
2013-11-3,47.4,40.0,32.6,40.2,35.1,27.1,98,83,61,30.48,30.05,5,0,0,0.01
2013-11-4,44.9,37.5,29.7,32.3,28.4,25.4,85,71,51,30.54,30.41,11,2,0,0.00
2013-11-5,59.6,49.1,40.6,45.3,39.6,32.1,81,70,58,30.45,30.28,6,1,0,0.00
2013-11-6,64.9,54.1,44.0,57.5,46.3,36.4,98,76,59,30.28,29.91,10,1,17,0.22
2013-11-7,48.4,41.5,39.0,46.6,36.1,29.1,97,82,59,30.15,29.95,9,2,15,0.17
2013-11-8,43.0,35.4,28.5,33.9,29.9,26.1,95,81,57,30.33,30.12,8,1,12,0.03
2013-11-9,57.0,45.0,28.8,41.5,34.5,27.0,94,69,46,30.28,29.94,13,2,22,0.00
2013-11-10,50.1,41.3,29.2,41.0,33.7,27.1,93,75,61,30.31,29.97,11,2,20,0.00
2013-11-11,47.0,37.8,28.5,39.0,32.3,27.0,96,82,56,30.30,30.05,10,1,13,0.09
2013-11-12,33.5,29.4,27.0,29.2,25.4,21.5,96,85,73,30.56,30.25,12,2,17,0.06
2013-11-13,36.8,30.1,22.8,25.0,21.5,18.5,85,71,52,30.60,30.35,9,2,12,0.01
2013-11-14,49.7,38.4,25.3,25.7,22.9,20.8,85,56,35,30.35,30.15,11,2,13,0.00
2013-11-15,51.1,44.3,35.4,33.3,27.2,22.2,69,51,38,30.18,30.10,9,1,12,0.00
2013-11-16,57.9,48.4,34.0,51.8,43.8,31.1,95,84,69,30.20,29.94,11,1,16,0.00
2013-11-17,60.6,57.0,50.0,58.0,53.9,41.8,98,90,68,29.95,29.44,18,4,25,0.88
2013-11-18,49.9,42.7,35.2,42.0,35.3,27.6,86,75,66,30.13,29.60,15,4,19,0.00
2013-11-19,39.8,33.8,25.7,29.6,26.5,22.5,89,75,59,30.44,30.12,8,1,0,0.00
2013-11-20,45.0,35.4,25.6,25.9,22.8,18.8,89,63,39,30.47,30.33,10,2,16,0.00
2013-11-21,43.9,40.1,36.5,42.0,33.9,20.5,94,80,49,30.40,30.23,8,1,0,0.06
2013-11-22,49.3,43.8,33.5,49.0,42.6,29.7,99,95,84,30.34,30.14,16,2,17,0.14
2013-11-23,33.4,27.4,20.6,29.7,21.9,8.0,94,80,57,30.48,30.26,14,3,19,0.00
2013-11-24,22.6,19.3,16.0,16.5,12.0,7.2,88,74,58,30.62,30.48,11,2,16,0.00
2013-11-25,33.2,25.0,16.1,28.3,16.5,12.6,88,71,53,30.55,30.23,10,2,13,0.00
2013-11-26,32.9,31.0,29.5,30.3,28.6,27.5,96,91,81,30.23,29.89,7,1,0,0.00
2013-11-27,31.3,26.5,22.1,29.9,21.7,14.8,95,82,65,30.20,29.84,13,2,19,0.00
2013-11-28,28.1,23.0,14.9,22.2,17.4,10.6,86,79,72,30.47,30.21,7,1,0,0.00
2013-11-29,33.3,23.8,13.5,24.2,18.5,11.6,95,81,60,30.70,30.47,7,0,0,0.09
2013-11-30,38.5,29.3,24.3,29.0,23.9,20.2,94,80,65,30.65,30.22,11,2,0,0.06
2013-12-1,41.5,33.8,25.4,33.5,29.5,23.6,95,85,71,30.22,29.99,5,0,0,0.00
2013-12-2,38.6,35.1,32.0,34.7,32.5,29.3,97,90,80,29.99,29.88,4,0,0,0.00
2013-12-3,49.6,40.3,33.2,43.5,37.3,31.4,95,89,79,29.93,29.87,8,1,0,0.01
2013-12-4,57.0,49.6,40.9,51.2,45.5,38.8,94,86,79,29.96,29.78,8,1,0,0.00
2013-12-5,59.9,49.8,32.5,57.3,45.3,30.6,93,85,69,30.14,29.76,12,2,14,0.03
2013-12-6,32.4,29.3,25.3,30.6,27.2,23.8,95,92,81,30.38,30.08,8,1,0,0.02
2013-12-7,25.3,20.7,13.5,23.8,16.3,11.1,94,83,70,30.65,30.38,9,1,0,0.00
2013-12-8,28.2,22.5,12.6,27.0,18.0,10.2,95,83,64,30.65,30.07,11,2,14,0.00
2013-12-9,33.2,29.8,24.0,32.7,26.5,18.8,98,88,77,30.19,29.98,11,2,16,0.01
2013-12-10,26.6,22.1,19.3,19.0,14.0,8.3,83,71,47,30.31,30.06,13,3,17,0.00
2013-12-11,24.8,19.7,14.5,20.8,15.3,7.7,91,83,74,30.50,30.31,8,2,0,0.00
2013-12-12,18.7,13.5,3.5,8.5,4.4,0.5,90,68,47,30.55,30.32,10,2,13,0.00
2013-12-13,32.0,24.0,16.8,20.6,14.5,5.1,81,67,56,30.33,30.24,7,1,0,0.03
2013-12-14,33.9,29.7,25.7,33.4,28.2,20.2,98,94,76,30.29,29.71,7,1,0,0.01
2013-12-15,32.0,21.7,14.7,31.5,19.1,10.9,98,90,79,30.11,29.72,11,3,16,0.00
2013-12-16,22.5,17.4,9.9,20.8,12.4,7.3,94,81,66,30.24,30.06,6,1,0,0.00
2013-12-17,27.4,24.5,20.6,26.7,22.3,18.9,97,91,83,30.10,29.99,7,2,0,0.00
2013-12-18,30.1,25.4,23.0,23.2,20.5,17.1,90,82,67,30.22,30.05,9,2,0,0.00
2013-12-19,44.8,36.4,25.0,36.5,28.6,20.3,89,74,62,30.09,29.99,10,1,18,0.43
2013-12-20,53.6,46.4,41.0,53.0,42.9,33.7,99,88,68,29.99,29.82,9,1,12,0.18
2013-12-21,58.4,48.5,38.1,58.0,48.1,37.6,100,99,93,29.83,29.43,10,2,12,1.42
2013-12-22,61.4,51.1,38.7,60.6,47.4,38.1,100,88,63,30.00,29.41,15,3,20,0.73
2013-12-23,39.9,32.4,26.4,38.9,28.1,20.1,97,84,72,30.34,29.99,11,2,13,0.02
2013-12-24,26.4,17.4,12.7,21.9,13.0,7.7,91,82,77,30.60,30.32,11,2,12,0.00
2013-12-25,27.8,20.4,10.7,21.9,15.0,8.2,91,80,61,30.58,30.22,10,1,13,0.00
2013-12-26,31.0,28.3,24.6,27.4,22.7,18.5,91,80,65,30.37,30.15,14,2,17,0.00
2013-12-27,41.9,35.3,25.6,31.9,27.6,20.9,83,73,61,30.38,30.23,8,1,0,0.00
2013-12-28,51.7,42.2,34.4,36.6,32.5,29.3,82,69,51,30.23,30.00,7,1,12,0.00
2013-12-29,40.8,38.6,28.3,39.5,33.4,26.8,96,82,65,30.01,29.73,8,1,12,0.11
2013-12-30,28.3,21.7,18.8,26.9,18.1,13.9,95,86,74,30.28,29.96,6,1,0,0.01
2013-12-31,22.9,18.9,13.3,20.0,15.1,9.5,92,85,73,30.37,30.12,12,2,15,0.00
2014-1-1,24.9,21.3,18.1,21.3,18.7,15.9,93,90,85,30.39,30.16,5,1,0,0.00
2014-1-2,21.5,18.3,11.2,19.3,16.2,8.9,93,91,89,30.15,29.86,15,3,18,0.00